createdAt,value
2018-12-02T04:47:42.633Z,9.03
2018-12-02T04:48:23.046Z,9.03
2018-12-02T04:53:28.575Z,9.14
2018-12-02T04:54:24.040Z,9.13
2018-12-02T04:55:29.737Z,9.06
2018-12-02T04:56:23.605Z,9.11
2018-12-02T04:57:24.666Z,8.99
2018-12-02T04:58:23.545Z,9.04
2018-12-02T04:59:27.643Z,9.02
2018-12-02T05:00:31.354Z,8.99
2018-12-02T05:02:23.100Z,9.08
2018-12-02T05:03:22.797Z,9.13
2018-12-02T05:55:11.941Z,9.25
2018-12-02T05:56:25.150Z,9.14
2018-12-02T05:57:14.460Z,9.16
2018-12-02T06:01:34.755Z,9.11
2018-12-02T06:12:32.526Z,9.11
2018-12-02T06:15:51.146Z,9.19
2018-12-02T06:16:11.573Z,9.26
2018-12-02T06:17:06.653Z,9.29
2018-12-02T06:23:52.373Z,9.36
2018-12-02T06:26:01.745Z,9.37
2018-12-02T06:27:16.798Z,9.36
2018-12-02T06:27:52.739Z,9.31
2018-12-02T06:29:12.636Z,9.31
2018-12-02T06:29:55.242Z,9.25
2018-12-02T06:30:52.621Z,9.31
2018-12-02T06:33:29.526Z,9.14
2018-12-02T06:34:28.871Z,9.08
2018-12-02T06:35:29.048Z,9.14
2018-12-02T06:37:29.458Z,9.13
2018-12-02T06:37:53.063Z,9.11
2018-12-02T06:38:32.327Z,9.28
2018-12-02T06:39:32.830Z,9.28
2018-12-02T06:40:46.458Z,9.22
2018-12-02T06:41:38.426Z,9.22
2018-12-02T06:44:34.825Z,9.11
2018-12-02T06:45:36.745Z,9.10
2018-12-02T06:46:43.454Z,9.21
2018-12-02T06:47:36.171Z,9.13
2018-12-02T06:48:39.260Z,9.21
2018-12-02T06:49:38.448Z,9.10
2018-12-02T06:50:35.982Z,9.16
2018-12-02T06:51:35.749Z,9.13
2018-12-02T06:52:36.276Z,9.16
2018-12-02T06:53:40.943Z,9.21
2018-12-02T06:54:37.766Z,9.18
2018-12-02T06:55:41.267Z,9.22
2018-12-02T06:56:37.750Z,9.23
2018-12-02T06:57:40.989Z,9.28
2018-12-02T06:58:38.734Z,9.21
2018-12-02T06:59:38.645Z,9.21
2018-12-02T07:00:37.570Z,9.22
2018-12-02T07:01:39.944Z,9.14
2018-12-02T07:02:35.666Z,9.06
2018-12-02T07:05:48.149Z,9.11
2018-12-02T07:07:19.428Z,9.11
2018-12-02T07:10:11.316Z,9.02
2018-12-02T07:16:50.595Z,9.10
2018-12-02T07:19:08.888Z,9.02
2018-12-02T07:29:03.274Z,9.13
2018-12-02T07:32:10.474Z,9.14
2018-12-02T07:32:50.041Z,9.26
2018-12-02T07:33:50.691Z,9.25
2018-12-02T07:34:50.504Z,9.29
2018-12-02T07:36:01.326Z,9.23
2018-12-02T07:36:51.931Z,9.25
2018-12-02T07:40:19.864Z,9.23
2018-12-02T07:42:19.389Z,9.26
2018-12-02T07:43:21.206Z,9.19
2018-12-02T07:44:17.622Z,9.26
2018-12-02T07:45:14.800Z,9.32
2018-12-02T07:46:13.133Z,9.26
2018-12-02T07:47:12.219Z,9.29
2018-12-02T07:48:11.909Z,9.32
2018-12-02T07:49:12.186Z,9.29
2018-12-02T07:52:11.123Z,9.39
2018-12-02T07:53:12.586Z,9.37
2018-12-02T07:54:12.616Z,9.32
2018-12-02T07:55:19.737Z,9.40
2018-12-02T08:02:19.509Z,9.34
2018-12-02T08:03:08.194Z,9.41
2018-12-02T08:04:08.551Z,9.44
2018-12-02T08:05:08.342Z,9.41
2018-12-02T08:06:16.761Z,9.44
2018-12-02T08:08:08.961Z,9.37
2018-12-02T08:09:09.372Z,9.41
2018-12-02T08:10:09.098Z,9.32
2018-12-02T08:11:08.273Z,9.41
2018-12-02T08:12:07.544Z,9.37
2018-12-02T08:13:07.484Z,9.46
2018-12-02T08:14:09.143Z,9.40
2018-12-02T08:15:19.285Z,9.44
2018-12-02T08:18:46.802Z,9.39
2018-12-02T08:20:49.882Z,9.41
2018-12-02T08:21:47.966Z,9.41
2018-12-02T08:22:51.142Z,9.34
2018-12-02T08:33:53.658Z,9.48
2018-12-02T08:34:55.888Z,9.48
2018-12-02T08:42:41.560Z,9.58
2018-12-02T08:43:39.547Z,9.61
2018-12-02T09:02:04.161Z,9.84
2018-12-02T09:03:02.356Z,9.84
2018-12-02T09:06:16.096Z,9.84
2018-12-02T09:11:35.662Z,9.80
2018-12-02T09:12:32.935Z,9.83
2018-12-02T10:02:35.157Z,10.25
2018-12-02T10:20:13.015Z,10.40
2018-12-02T10:21:09.843Z,10.40
2018-12-02T10:22:15.998Z,10.40
2018-12-02T10:23:11.669Z,10.42
2018-12-02T10:24:12.159Z,10.41
2018-12-02T10:25:11.281Z,10.40
2018-12-02T10:26:16.458Z,10.35
2018-12-02T10:27:10.476Z,10.44
2018-12-02T10:28:10.926Z,10.37
2018-12-02T10:29:12.871Z,10.49
2018-12-02T10:30:12.441Z,10.57
2018-12-02T10:31:10.340Z,10.49
2018-12-02T10:32:12.320Z,10.54
2018-12-02T10:33:12.192Z,10.49
2018-12-02T10:34:09.442Z,10.38
2018-12-02T10:35:09.704Z,10.42
2018-12-02T10:36:09.849Z,10.37
2018-12-02T10:37:10.129Z,10.38
2018-12-02T10:40:16.995Z,10.53
2018-12-02T11:11:08.576Z,10.51
2018-12-02T11:25:00.925Z,10.72
2018-12-02T11:25:55.030Z,10.74
2018-12-02T11:31:54.285Z,10.56
2018-12-02T11:39:54.848Z,10.54
2018-12-02T11:50:25.193Z,10.37
2018-12-02T11:51:24.632Z,10.38
2018-12-02T11:52:23.301Z,10.37
2018-12-02T11:53:25.029Z,10.40
2018-12-02T11:54:26.301Z,10.37
2018-12-02T11:55:25.433Z,10.44
2018-12-02T11:57:26.529Z,10.40
2018-12-02T11:58:28.620Z,10.49
2018-12-02T12:01:04.512Z,10.51
2018-12-02T12:02:07.517Z,10.40
2018-12-02T12:03:05.034Z,10.54
2018-12-02T12:04:05.395Z,10.44
2018-12-02T12:05:16.501Z,10.37
2018-12-02T12:06:05.574Z,10.44
2018-12-02T12:07:06.000Z,10.44
2018-12-02T12:08:06.028Z,10.49
2018-12-02T12:09:06.018Z,10.37
2018-12-02T12:12:47.811Z,10.38
2018-12-02T12:13:48.283Z,10.46
2018-12-02T12:14:48.941Z,10.44
2018-12-02T12:15:52.008Z,10.41
2018-12-02T12:16:48.413Z,10.48
2018-12-02T12:17:48.433Z,10.51
2018-12-02T12:18:49.417Z,10.59
2018-12-02T12:19:47.636Z,10.59
2018-12-02T12:20:46.909Z,10.57
2018-12-02T12:21:47.045Z,10.64
2018-12-02T12:22:47.114Z,10.57
2018-12-02T12:23:47.353Z,10.41
2018-12-02T12:24:47.614Z,10.44
2018-12-02T12:25:47.754Z,10.53
2018-12-02T12:26:47.731Z,10.53
2018-12-02T12:27:48.548Z,10.60
2018-12-02T12:28:48.913Z,10.60
2018-12-02T12:29:48.276Z,10.68
2018-12-02T12:30:48.834Z,10.61
2018-12-02T12:31:48.672Z,10.60
2018-12-02T12:32:49.550Z,10.61
2018-12-02T12:33:48.966Z,10.67
2018-12-02T12:34:49.805Z,10.76
2018-12-02T12:35:49.190Z,10.75
2018-12-02T12:36:49.341Z,10.67
2018-12-02T12:37:49.711Z,10.59
2018-12-02T12:38:49.757Z,10.59
2018-12-02T12:39:49.943Z,10.57
2018-12-02T12:40:51.664Z,10.60
2018-12-02T12:41:50.365Z,10.63
2018-12-02T12:42:50.565Z,10.63
2018-12-02T12:43:50.843Z,10.72
2018-12-02T12:44:50.825Z,10.74
2018-12-02T12:45:51.094Z,10.74
2018-12-02T12:46:51.189Z,10.67
2018-12-02T12:47:52.407Z,10.71
2018-12-02T12:48:51.424Z,10.71
2018-12-02T12:49:51.544Z,10.64
2018-12-02T12:50:51.809Z,10.74
2018-12-02T12:51:52.856Z,10.69
2018-12-02T12:52:52.105Z,10.81
2018-12-02T12:53:52.392Z,10.81
2018-12-02T12:54:52.530Z,10.81
2018-12-02T12:55:52.609Z,10.75
2018-12-02T12:56:52.824Z,10.79
2018-12-02T12:57:53.098Z,10.78
2018-12-02T12:58:53.245Z,10.79
2018-12-02T12:59:54.017Z,10.86
2018-12-02T13:00:53.449Z,10.82
2018-12-02T13:01:53.740Z,10.75
2018-12-02T13:02:53.946Z,10.92
2018-12-02T13:03:54.070Z,10.89
2018-12-02T13:04:54.307Z,10.90
2018-12-02T13:05:54.388Z,10.87
2018-12-02T13:06:54.724Z,10.90
2018-12-02T13:07:55.163Z,10.99
2018-12-02T13:08:54.854Z,11.00
2018-12-02T13:09:54.973Z,11.08
2018-12-02T13:10:55.238Z,11.02
2018-12-02T13:11:55.444Z,11.11
2018-12-02T13:12:55.665Z,11.02
2018-12-02T13:13:55.638Z,11.08
2018-12-02T13:14:55.798Z,11.12
2018-12-02T13:15:55.948Z,11.14
2018-12-02T13:16:56.110Z,11.14
2018-12-02T13:17:57.114Z,11.14
2018-12-02T13:18:56.607Z,11.05
2018-12-02T13:19:56.772Z,11.08
2018-12-02T13:20:56.837Z,10.97
2018-12-02T13:21:57.076Z,11.10
2018-12-02T13:22:57.352Z,11.07
2018-12-02T13:23:57.471Z,11.04
2018-12-02T13:24:57.753Z,10.94
2018-12-02T13:25:58.677Z,10.84
2018-12-02T13:26:57.969Z,10.78
2018-12-02T13:27:58.215Z,10.86
2018-12-02T13:28:58.419Z,10.82
2018-12-02T13:29:58.522Z,10.87
2018-12-02T13:30:58.707Z,10.90
2018-12-02T13:31:59.722Z,10.90
2018-12-02T13:32:59.109Z,10.99
2018-12-02T13:33:59.129Z,10.97
2018-12-02T13:34:59.288Z,10.96
2018-12-02T13:35:59.815Z,10.99
2018-12-02T13:36:59.627Z,10.96
2018-12-02T13:38:09.401Z,11.02
2018-12-02T13:39:00.040Z,10.92
2018-12-02T13:41:04.336Z,10.89
2018-12-02T13:42:01.006Z,10.99
2018-12-02T13:43:00.663Z,10.96
2018-12-02T13:44:00.810Z,10.96
2018-12-02T13:45:01.343Z,11.04
2018-12-02T13:46:01.196Z,11.00
2018-12-02T13:47:01.658Z,10.96
2018-12-02T13:48:01.752Z,11.08
2018-12-02T13:49:01.860Z,11.19
2018-12-02T13:50:01.907Z,11.14
2018-12-02T13:51:02.053Z,11.08
2018-12-02T13:52:02.295Z,11.23
2018-12-02T13:53:03.049Z,11.32
2018-12-02T13:54:03.074Z,11.19
2018-12-02T13:55:03.564Z,11.22
2018-12-02T13:56:03.048Z,11.19
2018-12-02T13:57:03.668Z,11.23
2018-12-02T13:58:03.725Z,11.25
2018-12-02T13:59:03.544Z,11.23
2018-12-02T14:00:03.666Z,11.25
2018-12-02T14:02:41.492Z,11.08
2018-12-02T14:03:43.987Z,11.18
2018-12-02T14:05:10.842Z,11.22
2018-12-02T14:06:45.024Z,11.26
2018-12-02T14:07:47.267Z,11.30
2018-12-02T14:08:44.196Z,11.36
2018-12-02T14:10:38.996Z,11.41
2018-12-02T14:11:39.164Z,11.51
2018-12-02T14:12:39.265Z,11.45
2018-12-02T14:13:39.499Z,11.55
2018-12-02T14:14:39.675Z,11.51
2018-12-02T14:15:39.814Z,11.59
2018-12-02T14:16:40.477Z,11.55
2018-12-02T14:17:41.069Z,11.57
2018-12-02T14:18:40.698Z,11.57
2018-12-02T14:19:40.792Z,11.55
2018-12-02T14:20:40.784Z,11.63
2018-12-02T14:21:40.969Z,11.55
2018-12-02T14:22:40.960Z,11.55
2018-12-02T14:23:41.213Z,11.50
2018-12-02T14:24:41.417Z,11.54
2018-12-02T14:25:41.943Z,11.62
2018-12-02T14:26:42.175Z,11.63
2018-12-02T14:27:42.091Z,11.57
2018-12-02T14:28:41.909Z,11.59
2018-12-02T14:29:42.571Z,11.66
2018-12-02T14:30:42.781Z,11.60
2018-12-02T14:31:42.699Z,11.57
2018-12-02T14:32:42.774Z,11.60
2018-12-02T14:33:43.248Z,11.68
2018-12-02T14:34:43.098Z,11.66
2018-12-02T14:35:43.325Z,11.73
2018-12-02T14:36:43.679Z,11.72
2018-12-02T14:37:44.309Z,11.80
2018-12-02T14:38:44.457Z,11.77
2018-12-02T14:39:45.141Z,11.86
2018-12-02T14:40:44.855Z,11.86
2018-12-02T14:41:45.046Z,11.84
2018-12-02T14:42:45.333Z,11.88
2018-12-02T14:44:12.489Z,11.90
2018-12-02T14:44:47.642Z,11.94
2018-12-02T14:46:21.533Z,11.86
2018-12-02T14:46:48.890Z,11.90
2018-12-02T14:47:52.002Z,11.99
2018-12-02T14:48:51.147Z,11.94
2018-12-02T14:49:50.635Z,11.91
2018-12-02T14:51:47.643Z,11.87
2018-12-02T14:52:46.902Z,11.94
2018-12-02T14:53:46.698Z,11.97
2018-12-02T14:54:46.711Z,11.94
2018-12-02T14:55:46.723Z,11.88
2018-12-02T14:56:46.958Z,11.88
2018-12-02T14:57:48.545Z,11.91
2018-12-02T14:58:48.612Z,11.99
2018-12-02T14:59:47.913Z,12.00
2018-12-02T15:00:47.633Z,12.04
2018-12-02T15:01:47.579Z,11.91
2018-12-02T15:02:48.608Z,12.00
2018-12-02T15:03:48.231Z,12.03
2018-12-02T15:04:48.791Z,11.91
2018-12-02T15:05:48.029Z,11.97
2018-12-02T15:06:48.356Z,11.90
2018-12-02T15:07:48.403Z,11.84
2018-12-02T15:08:48.479Z,11.78
2018-12-02T15:09:48.766Z,11.83
2018-12-02T15:10:48.885Z,11.84
2018-12-02T15:11:49.192Z,11.97
2018-12-02T15:12:49.318Z,11.97
2018-12-02T15:13:49.731Z,11.95
2018-12-02T15:15:00.157Z,12.04
2018-12-02T15:16:02.125Z,12.06
2018-12-02T15:17:02.387Z,12.02
2018-12-02T15:18:02.702Z,12.00
2018-12-02T15:19:02.935Z,12.02
2018-12-02T15:20:20.886Z,11.94
2018-12-02T15:22:03.951Z,11.97
2018-12-02T15:23:06.998Z,12.04
2018-12-02T15:23:53.982Z,12.03
2018-12-02T15:25:04.230Z,12.10
2018-12-02T15:26:11.644Z,12.10
2018-12-02T15:27:08.615Z,12.09
2018-12-02T15:28:09.566Z,12.09
2018-12-02T15:29:04.503Z,12.00
2018-12-02T15:30:07.437Z,12.00
2018-12-02T15:30:55.698Z,12.02
2018-12-02T15:32:55.034Z,12.10
2018-12-02T15:33:53.827Z,12.00
2018-12-02T15:34:53.387Z,12.13
2018-12-02T15:35:53.349Z,12.13
2018-12-02T15:36:53.546Z,12.21
2018-12-02T15:37:53.693Z,12.13
2018-12-02T15:38:53.855Z,12.22
2018-12-02T15:39:54.059Z,12.24
2018-12-02T15:40:54.164Z,12.24
2018-12-02T15:41:54.419Z,12.21
2018-12-02T15:42:54.569Z,12.27
2018-12-02T15:43:54.825Z,12.32
2018-12-02T15:44:54.852Z,12.31
2018-12-02T15:45:54.985Z,12.32
2018-12-02T15:46:55.159Z,12.35
2018-12-02T15:47:55.329Z,12.27
2018-12-02T15:48:56.773Z,12.27
2018-12-02T15:49:59.396Z,12.27
2018-12-02T15:50:57.159Z,12.28
2018-12-02T15:51:56.027Z,12.22
2018-12-02T15:52:56.336Z,12.28
2018-12-02T15:53:56.978Z,12.35
2018-12-02T15:57:11.445Z,12.29
2018-12-02T15:58:09.694Z,12.25
2018-12-02T15:59:14.806Z,12.36
2018-12-02T16:08:29.164Z,12.53
2018-12-02T16:09:29.637Z,12.39
2018-12-02T16:10:29.869Z,12.50
2018-12-02T16:13:47.425Z,12.40
2018-12-02T16:14:45.372Z,12.53
2018-12-02T16:15:45.088Z,12.43
2018-12-02T16:17:47.044Z,12.55
2018-12-02T16:18:44.391Z,12.47
2018-12-02T16:19:45.087Z,12.42
2018-12-02T16:20:44.598Z,12.42
2018-12-02T16:21:44.807Z,12.42
2018-12-02T16:22:44.311Z,12.45
2018-12-02T16:27:38.934Z,12.45
2018-12-02T16:27:54.899Z,12.45
2018-12-02T16:30:43.786Z,12.50
2018-12-02T16:35:25.082Z,12.55
2018-12-02T16:38:46.660Z,12.72
2018-12-02T16:39:46.953Z,12.65
2018-12-02T16:40:47.404Z,12.62
2018-12-02T16:41:47.350Z,12.75
2018-12-02T16:42:47.515Z,12.64
2018-12-02T16:43:54.204Z,12.79
2018-12-02T16:46:54.321Z,12.79
2018-12-02T16:47:52.982Z,12.83
2018-12-02T16:55:12.048Z,12.76
2018-12-02T16:56:02.497Z,12.72
2018-12-02T17:43:48.582Z,13.19
2018-12-02T17:44:26.950Z,13.22
2018-12-02T17:45:30.245Z,13.18
2018-12-02T17:46:35.475Z,13.19
2018-12-02T17:47:28.601Z,13.18
2018-12-02T17:48:33.872Z,13.25
2018-12-02T17:49:40.094Z,13.25
2018-12-02T17:50:29.610Z,13.23
2018-12-02T17:51:29.903Z,13.27
2018-12-02T17:52:28.376Z,13.20
2018-12-02T18:04:54.748Z,13.49
2018-12-02T18:21:58.384Z,13.54
2018-12-02T18:30:44.534Z,13.53
2018-12-02T18:31:41.420Z,13.56
2018-12-02T18:32:41.996Z,13.52
2018-12-02T18:33:41.779Z,13.53
2018-12-02T18:34:40.909Z,13.46
2018-12-02T18:35:40.038Z,13.50
2018-12-02T18:36:40.325Z,13.50
2018-12-02T18:37:40.389Z,13.46
2018-12-02T18:38:40.534Z,13.53
2018-12-02T18:39:40.692Z,13.49
2018-12-02T18:42:26.498Z,13.53
2018-12-02T18:43:28.040Z,13.56
2018-12-02T18:45:27.417Z,13.60
2018-12-02T18:46:26.959Z,13.57
2018-12-02T18:47:26.763Z,13.56
2018-12-02T18:48:27.245Z,13.59
2018-12-02T18:49:33.539Z,13.56
2018-12-02T18:50:33.711Z,13.54
2018-12-02T18:51:28.118Z,13.62
2018-12-02T18:52:27.508Z,13.53
2018-12-02T18:53:28.859Z,13.62
2018-12-02T18:54:29.563Z,13.65
2018-12-02T18:55:29.845Z,13.60
2018-12-02T18:56:28.760Z,13.60
2018-12-02T18:57:30.673Z,13.53
2018-12-02T18:58:31.789Z,13.59
2018-12-02T18:59:29.897Z,13.65
2018-12-02T19:00:30.106Z,13.59
2018-12-02T19:02:30.405Z,13.60
2018-12-02T19:03:30.168Z,13.60
2018-12-02T19:04:32.104Z,13.60
2018-12-02T19:05:32.983Z,13.70
2018-12-02T19:06:30.715Z,13.56
2018-12-02T19:07:30.354Z,13.68
2018-12-02T19:08:31.391Z,13.62
2018-12-02T19:09:28.934Z,13.60
2018-12-02T19:10:28.871Z,13.62
2018-12-02T19:11:28.832Z,13.63
2018-12-02T19:12:29.089Z,13.52
2018-12-02T19:13:29.336Z,13.54
2018-12-02T19:14:29.795Z,13.56
2018-12-02T19:15:29.742Z,13.57
2018-12-02T19:16:29.804Z,13.59
2018-12-02T19:17:29.901Z,13.62
2018-12-02T19:18:30.144Z,13.53
2018-12-02T19:19:30.705Z,13.63
2018-12-02T19:20:30.412Z,13.54
2018-12-02T19:21:30.758Z,13.50
2018-12-02T19:22:30.906Z,13.56
2018-12-02T19:23:31.079Z,13.63
2018-12-02T19:24:31.882Z,13.56
2018-12-02T19:25:41.819Z,13.47
2018-12-02T19:26:33.808Z,13.56
2018-12-02T19:27:34.330Z,13.46
2018-12-02T19:28:35.364Z,13.52
2018-12-02T19:29:34.419Z,13.53
2018-12-02T19:30:35.307Z,13.50
2018-12-02T19:31:35.050Z,13.50
2018-12-02T19:32:35.108Z,13.57
2018-12-02T19:33:35.295Z,13.53
2018-12-02T19:34:35.687Z,13.47
2018-12-02T19:35:39.301Z,13.60
2018-12-02T19:36:36.458Z,13.60
2018-12-02T19:37:36.286Z,13.62
2018-12-02T19:38:36.326Z,13.56
2018-12-02T19:39:36.214Z,13.56
2018-12-02T19:40:34.543Z,13.52
2018-12-02T19:41:34.492Z,13.56
2018-12-02T19:42:36.315Z,13.57
2018-12-02T19:43:34.824Z,13.56
2018-12-02T19:44:35.752Z,13.50
2018-12-02T19:45:34.977Z,13.56
2018-12-02T19:46:40.935Z,13.47
2018-12-02T19:49:25.503Z,13.33
2018-12-02T19:50:25.816Z,13.30
2018-12-02T19:51:25.147Z,13.44
2018-12-02T19:52:27.442Z,13.47
2018-12-02T19:53:25.391Z,13.49
2018-12-02T19:54:26.097Z,13.60
2018-12-02T19:55:26.473Z,13.50
2018-12-02T19:56:26.267Z,13.57
2018-12-02T19:57:26.608Z,13.57
2018-12-02T19:58:25.725Z,13.57
2018-12-02T19:59:27.896Z,13.56
2018-12-02T20:00:26.327Z,13.57
2018-12-02T20:01:26.724Z,13.54
2018-12-02T20:02:26.504Z,13.49
2018-12-02T20:03:26.815Z,13.59
2018-12-02T20:04:27.279Z,13.50
2018-12-02T20:05:27.381Z,13.50
2018-12-02T20:06:27.494Z,13.62
2018-12-02T20:07:27.886Z,13.57
2018-12-02T20:08:27.640Z,13.50
2018-12-02T20:09:27.891Z,13.53
2018-12-02T20:10:28.198Z,13.56
2018-12-02T20:11:28.112Z,13.59
2018-12-02T20:12:29.490Z,13.60
2018-12-02T20:13:29.911Z,13.59
2018-12-02T20:15:29.081Z,13.44
2018-12-02T20:16:29.147Z,13.54
2018-12-02T20:18:26.958Z,13.54
2018-12-02T20:21:30.269Z,13.65
2018-12-02T20:22:35.168Z,13.60
2018-12-02T20:24:29.762Z,13.60
2018-12-02T20:25:30.299Z,13.56
2018-12-02T20:26:31.555Z,13.63
2018-12-02T20:27:31.335Z,13.71
2018-12-02T20:28:30.604Z,13.74
2018-12-02T20:29:32.002Z,13.77
2018-12-02T20:30:32.584Z,13.71
2018-12-02T20:31:30.347Z,13.68
2018-12-02T20:32:31.816Z,13.65
2018-12-02T20:33:34.450Z,13.68
2018-12-02T20:34:31.449Z,13.71
2018-12-02T20:37:04.536Z,13.67
2018-12-02T20:38:04.741Z,13.59
2018-12-02T20:40:05.187Z,13.50
2018-12-02T20:41:05.666Z,13.52
2018-12-02T20:42:04.953Z,13.49
2018-12-02T20:43:05.495Z,13.53
2018-12-02T20:44:05.566Z,13.50
2018-12-02T20:45:06.038Z,13.50
2018-12-02T20:46:05.979Z,13.56
2018-12-02T20:47:06.725Z,13.44
2018-12-02T20:48:08.227Z,13.54
2018-12-02T20:49:07.406Z,13.49
2018-12-02T20:50:07.078Z,13.53
2018-12-02T20:52:07.391Z,13.46
2018-12-02T20:53:15.934Z,13.54
2018-12-02T20:54:10.894Z,13.54
2018-12-02T20:55:07.407Z,13.53
2018-12-02T20:56:07.549Z,13.56
2018-12-02T20:57:07.971Z,13.59
2018-12-02T20:59:06.651Z,13.57
2018-12-02T21:00:06.833Z,13.65
2018-12-02T21:01:06.088Z,13.56
2018-12-02T21:02:06.323Z,13.59
2018-12-02T21:03:06.543Z,13.60
2018-12-02T21:04:06.737Z,13.53
2018-12-02T21:05:06.770Z,13.53
2018-12-02T21:06:08.186Z,13.68
2018-12-02T21:07:07.253Z,13.74
2018-12-02T21:08:08.271Z,13.68
2018-12-02T21:09:07.563Z,13.68
2018-12-02T21:10:08.146Z,13.54
2018-12-02T21:11:08.223Z,13.57
2018-12-02T21:12:08.241Z,13.62
2018-12-02T21:13:08.913Z,13.54
2018-12-02T21:14:08.693Z,13.57
2018-12-02T21:15:09.414Z,13.57
2018-12-02T21:16:08.976Z,13.50
2018-12-02T21:17:09.336Z,13.57
2018-12-02T21:18:09.231Z,13.59
2018-12-02T21:19:09.198Z,13.57
2018-12-02T21:20:09.424Z,13.54
2018-12-02T21:21:09.803Z,13.53
2018-12-02T21:22:09.960Z,13.57
2018-12-02T21:23:10.083Z,13.52
2018-12-02T21:24:10.272Z,13.54
2018-12-02T21:25:12.057Z,13.59
2018-12-02T21:26:10.760Z,13.57
2018-12-02T21:27:10.926Z,13.63
2018-12-02T21:28:11.028Z,13.59
2018-12-02T21:29:11.476Z,13.65
2018-12-02T21:30:11.544Z,13.65
2018-12-02T21:31:11.487Z,13.60
2018-12-02T21:32:11.660Z,13.57
2018-12-02T21:33:11.796Z,13.56
2018-12-02T21:34:12.218Z,13.68
2018-12-02T21:35:12.128Z,13.60
2018-12-02T21:36:12.296Z,13.68
2018-12-02T21:37:12.440Z,13.62
2018-12-02T21:38:12.840Z,13.57
2018-12-02T21:39:12.828Z,13.57
2018-12-02T21:40:12.945Z,13.68
2018-12-02T21:41:13.058Z,13.59
2018-12-02T21:42:13.197Z,13.65
2018-12-02T21:43:13.432Z,13.59
2018-12-02T21:44:13.744Z,13.54
2018-12-02T21:45:13.995Z,13.53
2018-12-02T21:46:14.150Z,13.54
2018-12-02T21:47:14.403Z,13.67
2018-12-02T21:48:14.553Z,13.59
2018-12-02T21:49:14.786Z,13.57
2018-12-02T21:50:14.876Z,13.60
2018-12-02T21:51:15.781Z,13.62
2018-12-02T21:52:15.155Z,13.57
2018-12-02T21:53:15.415Z,13.56
2018-12-02T21:54:15.637Z,13.54
2018-12-02T21:55:15.814Z,13.49
2018-12-02T21:56:16.015Z,13.59
2018-12-02T21:57:16.520Z,13.56
2018-12-02T21:58:16.471Z,13.49
2018-12-02T21:59:16.985Z,13.52
2018-12-02T22:00:17.516Z,13.42
2018-12-02T22:01:17.799Z,13.56
2018-12-02T22:02:17.466Z,13.46
2018-12-02T22:03:17.910Z,13.46
2018-12-02T22:04:17.515Z,13.50
2018-12-02T22:05:17.770Z,13.50
2018-12-02T22:06:17.939Z,13.50
2018-12-02T22:07:17.998Z,13.50
2018-12-02T22:08:18.153Z,13.56
2018-12-02T22:09:18.056Z,13.49
2018-12-02T22:10:18.519Z,13.53
2018-12-02T22:11:18.595Z,13.46
2018-12-02T22:12:18.518Z,13.41
2018-12-02T22:13:18.981Z,13.50
2018-12-02T22:14:19.059Z,13.44
2018-12-02T22:15:19.372Z,13.31
2018-12-02T22:16:19.702Z,13.39
2018-12-02T22:17:19.676Z,13.39
2018-12-02T22:18:19.630Z,13.37
2018-12-02T22:19:19.844Z,13.33
2018-12-02T22:20:19.940Z,13.28
2018-12-02T22:21:20.123Z,13.44
2018-12-02T22:22:20.208Z,13.31
2018-12-02T22:23:20.434Z,13.31
2018-12-02T22:24:20.534Z,13.35
2018-12-02T22:25:20.844Z,13.35
2018-12-02T22:26:20.929Z,13.23
2018-12-02T22:27:21.121Z,13.20
2018-12-02T22:28:21.305Z,13.20
2018-12-02T22:29:21.541Z,13.15
2018-12-02T22:30:21.660Z,13.18
2018-12-02T22:31:21.871Z,13.15
2018-12-02T22:32:21.979Z,13.30
2018-12-02T22:33:22.076Z,13.33
2018-12-02T22:34:22.470Z,13.27
2018-12-02T22:35:22.558Z,13.35
2018-12-02T22:36:22.674Z,13.39
2018-12-02T22:37:22.847Z,13.44
2018-12-02T22:38:23.081Z,13.39
2018-12-02T22:39:23.308Z,13.33
2018-12-02T22:40:23.429Z,13.38
2018-12-02T22:41:23.572Z,13.41
2018-12-02T22:42:23.849Z,13.33
2018-12-02T22:43:24.125Z,13.41
2018-12-02T22:44:24.239Z,13.42
2018-12-02T22:45:24.554Z,13.44
2018-12-02T22:46:24.750Z,13.46
2018-12-02T22:47:25.115Z,13.52
2018-12-02T22:48:25.207Z,13.46
2018-12-02T22:49:24.988Z,13.56
